Time;durP1;ratioP1;P1;durP2;ratioP2;P2;SDS_P1;SDS_P2;PMS_P1;PMS_P2;Temp;Humidity;BMP_temperature;BMP_pressure;BME280_temperature;BME280_humidity;BME280_pressure;Samples;Min_cycle;Max_cycle;Signal;HPM_P1;HPM_P2
2022/06/10 00:01:15;;;;;;;6.10;4.27;;;;;;;13.81;100.00;99620.75;5132726;27;20200;-79
2022/06/10 00:03:43;;;;;;;6.93;4.60;;;;;;;13.77;100.00;99615.72;5134709;27;20206;-79
2022/06/10 00:06:14;;;;;;;7.60;4.80;;;;;;;13.80;100.00;99616.38;5132685;27;20191;-79
2022/06/10 00:08:44;;;;;;;6.13;4.57;;;;;;;13.75;100.00;99622.00;5132626;27;20194;-79
2022/06/10 00:11:13;;;;;;;7.80;4.67;;;;;;;13.83;100.00;99624.16;5134802;27;20225;-79
2022/06/10 00:13:45;;;;;;;6.37;4.43;;;;;;;13.82;100.00;99626.94;5134941;27;20190;-79
2022/06/10 00:16:17;;;;;;;5.20;4.70;;;;;;;13.77;100.00;99626.38;5135040;27;20201;-79
2022/06/10 00:18:46;;;;;;;4.67;4.03;;;;;;;13.90;100.00;99621.91;5135166;27;20198;-79
2022/06/10 00:21:16;;;;;;;5.07;4.00;;;;;;;13.75;100.00;99615.84;5135044;27;20282;-79
2022/06/10 00:23:45;;;;;;;5.17;4.07;;;;;;;13.75;100.00;99626.50;5129825;27;20190;-79
2022/06/10 00:26:15;;;;;;;5.07;4.20;;;;;;;13.80;100.00;99623.50;5134944;27;20206;-79
2022/06/10 00:28:45;;;;;;;6.67;3.70;;;;;;;13.77;100.00;99626.38;5130827;27;20205;-79
2022/06/10 00:31:16;;;;;;;7.20;4.03;;;;;;;13.61;100.00;99623.94;5134889;27;20708;-79
2022/06/10 00:33:53;;;;;;;5.07;4.20;;;;;;;13.66;100.00;99627.13;5134617;27;20202;-79
2022/06/10 00:36:21;;;;;;;4.67;3.90;;;;;;;13.62;100.00;99620.31;5134490;27;20194;-80
2022/06/10 00:38:50;;;;;;;5.07;3.97;;;;;;;13.67;100.00;99627.00;5067291;28;20192;-80
2022/06/10 00:41:18;;;;;;;6.57;3.70;;;;;;;13.69;100.00;99634.88;5067199;28;20200;-79
2022/06/10 00:43:46;;;;;;;8.80;4.13;;;;;;;13.77;100.00;99635.22;5071410;28;20284;-79
2022/06/10 00:46:34;;;;;;;5.53;3.97;;;;;;;13.64;100.00;99637.88;5068741;28;20224;-79
2022/06/10 00:49:13;;;;;;;4.03;3.60;;;;;;;13.48;100.00;99633.72;5071140;28;20196;-79
2022/06/10 00:51:44;;;;;;;3.90;3.40;;;;;;;13.37;100.00;99627.31;5065860;28;20259;-79
2022/06/10 00:54:19;;;;;;;5.77;3.87;;;;;;;13.29;100.00;99634.97;5069745;28;20200;-79
2022/06/10 00:56:51;;;;;;;4.53;3.77;;;;;;;13.24;100.00;99631.78;5094440;27;20194;-79
2022/06/10 00:59:23;;;;;;;4.83;3.80;;;;;;;13.19;100.00;99628.56;5134104;27;20269;-79
2022/06/10 01:01:57;;;;;;;6.00;4.00;;;;;;;12.98;100.00;99629.97;5134216;27;20193;-79
2022/06/10 01:04:27;;;;;;;7.13;3.87;;;;;;;13.27;100.00;99628.91;5127989;27;20219;-79
2022/06/10 01:06:55;;;;;;;4.63;3.87;;;;;;;12.94;100.00;99628.47;5130038;27;20206;-79
2022/06/10 01:09:26;;;;;;;4.30;3.90;;;;;;;12.81;100.00;99631.91;5132526;27;20195;-79
2022/06/10 01:12:26;;;;;;;5.10;3.87;;;;;;;12.66;100.00;99640.06;5137372;27;20299;-79
2022/06/10 01:15:15;;;;;;;7.50;4.53;;;;;;;12.60;100.00;99630.66;5133888;27;20198;-79
2022/06/10 01:18:09;;;;;;;5.73;3.77;;;;;;;12.64;100.00;99634.81;5128371;27;20273;-79
2022/06/10 01:20:51;;;;;;;6.13;4.17;;;;;;;12.79;100.00;99641.81;5133819;27;20186;-79
2022/06/10 01:23:55;;;;;;;5.00;4.50;;;;;;;12.71;100.00;99637.94;5128467;27;20198;-79
2022/06/10 01:30:37;;;;;;;3.77;3.47;;;;;;;12.57;100.00;99638.84;5052394;28;20299;-79
2022/06/10 01:33:15;;;;;;;6.87;4.17;;;;;;;12.80;100.00;99638.19;5067845;28;20216;-79
2022/06/10 01:35:52;;;;;;;4.20;3.80;;;;;;;12.58;100.00;99635.22;5129651;27;20277;-79
2022/06/10 01:38:27;;;;;;;6.53;3.90;;;;;;;12.47;100.00;99641.25;5133770;27;20273;-79
2022/06/10 01:41:09;;;;;;;4.40;3.60;;;;;;;12.44;100.00;99635.25;5132409;28;20204;-79
2022/06/10 01:43:46;;;;;;;4.70;4.30;;;;;;;12.27;100.00;99634.53;5127929;28;20191;-79
2022/06/10 01:46:20;;;;;;;4.57;3.87;;;;;;;12.30;100.00;99637.00;5131391;28;20190;-79
2022/06/10 01:48:58;;;;;;;4.93;3.47;;;;;;;12.06;100.00;99635.84;5131432;28;20186;-79
2022/06/10 01:51:35;;;;;;;3.97;3.50;;;;;;;12.17;100.00;99638.72;5129885;28;20196;-79
2022/06/10 01:54:08;;;;;;;4.33;3.63;;;;;;;12.22;100.00;99636.63;5130839;28;20192;-79
2022/06/10 01:56:42;;;;;;;6.17;4.00;;;;;;;11.94;100.00;99639.28;5130742;28;20198;-79
2022/06/10 01:59:17;;;;;;;4.10;3.70;;;;;;;11.99;100.00;99634.56;5131249;28;20194;-79
2022/06/10 02:01:50;;;;;;;6.87;3.70;;;;;;;11.95;100.00;99633.88;5133336;28;20189;-80
2022/06/10 02:04:23;;;;;;;5.13;3.63;;;;;;;11.97;100.00;99633.81;5133404;28;20248;-81
2022/06/10 02:06:55;;;;;;;4.20;3.80;;;;;;;12.14;100.00;99638.03;5133161;28;20202;-79
2022/06/10 02:09:27;;;;;;;5.93;4.33;;;;;;;12.07;100.00;99644.72;5131107;28;20191;-79
2022/06/10 02:12:00;;;;;;;5.77;4.10;;;;;;;12.16;100.00;99646.75;5133409;28;20213;-80
2022/06/10 02:14:50;;;;;;;5.17;4.20;;;;;;;12.12;100.00;99653.22;5131308;28;20249;-79
2022/06/10 02:17:19;;;;;;;6.70;3.93;;;;;;;12.09;100.00;99651.63;5133460;27;20189;-79
2022/06/10 02:19:54;;;;;;;6.97;3.83;;;;;;;11.97;100.00;99660.34;5131609;28;20203;-79
2022/06/10 02:22:28;;;;;;;4.30;3.60;;;;;;;11.80;100.00;99657.88;5133341;28;20281;-79
2022/06/10 02:24:59;;;;;;;3.97;3.30;;;;;;;11.78;100.00;99659.75;5125045;27;20194;-79
2022/06/10 02:27:31;;;;;;;5.83;3.47;;;;;;;11.57;100.00;99660.06;5137215;27;20202;-79
2022/06/10 02:30:04;;;;;;;5.93;3.57;;;;;;;11.65;100.00;99664.91;5134688;27;20201;-79
2022/06/10 02:32:34;;;;;;;5.23;3.50;;;;;;;11.66;100.00;99662.16;5136999;27;20241;-79
2022/06/10 02:35:04;;;;;;;4.63;3.90;;;;;;;11.73;100.00;99657.34;5133705;27;20197;-79
2022/06/10 02:37:39;;;;;;;5.17;3.80;;;;;;;11.69;100.00;99667.31;5137003;27;20208;-79
2022/06/10 02:40:17;;;;;;;5.33;4.03;;;;;;;11.71;100.00;99673.38;5132165;27;20206;-79
2022/06/10 02:42:57;;;;;;;4.93;4.43;;;;;;;11.83;100.00;99663.00;5133029;27;20218;-79
2022/06/10 02:45:33;;;;;;;8.40;3.97;;;;;;;11.97;100.00;99668.31;5136973;27;20253;-79
2022/06/10 02:48:08;;;;;;;5.90;4.47;;;;;;;11.90;100.00;99666.97;5134259;27;20205;-79
2022/06/10 02:50:39;;;;;;;9.83;5.37;;;;;;;12.06;100.00;99675.69;5136698;27;20198;-79
2022/06/10 02:53:09;;;;;;;7.90;5.40;;;;;;;12.00;100.00;99679.59;5135128;27;20301;-80
2022/06/10 02:55:38;;;;;;;7.47;5.23;;;;;;;12.01;100.00;99678.63;5135572;27;20299;-79
2022/06/10 03:01:13;;;;;;;5.70;4.50;;;;;;;11.95;100.00;99683.47;5136522;27;20276;-79
2022/06/10 03:04:10;;;;;;;4.43;3.83;;;;;;;12.00;100.00;99678.75;5136726;27;20190;-79
2022/06/10 03:06:52;;;;;;;4.93;4.17;;;;;;;11.96;100.00;99679.84;5136102;27;20653;-79
2022/06/10 03:09:26;;;;;;;5.57;5.07;;;;;;;11.95;100.00;99686.13;5135071;27;20194;-80
2022/06/10 03:12:10;;;;;;;4.90;4.40;;;;;;;11.86;100.00;99691.97;5136061;27;20194;-79
2022/06/10 03:14:44;;;;;;;6.23;4.37;;;;;;;11.76;100.00;99703.13;5136216;27;20225;-79
2022/06/10 03:17:25;;;;;;;6.07;5.07;;;;;;;11.66;100.00;99703.78;5098657;27;20231;-79
2022/06/10 03:20:03;;;;;;;5.83;4.80;;;;;;;11.63;100.00;99703.97;5136447;27;20205;-79
2022/06/10 03:22:49;;;;;;;7.00;5.90;;;;;;;11.69;100.00;99706.25;5136062;27;20194;-79
2022/06/10 03:25:22;;;;;;;6.37;5.50;;;;;;;11.85;100.00;99714.16;5135202;27;20269;-79
2022/06/10 03:28:00;;;;;;;5.00;4.50;;;;;;;11.68;100.00;99713.38;5135725;27;20190;-80
2022/06/10 03:30:32;;;;;;;5.07;4.67;;;;;;;11.63;100.00;99717.22;5134725;27;20197;-79
2022/06/10 03:33:07;;;;;;;4.50;4.10;;;;;;;11.49;100.00;99714.56;5135919;27;20221;-79
2022/06/10 03:35:39;;;;;;;4.43;4.03;;;;;;;11.39;100.00;99723.03;5136099;27;20190;-80
2022/06/10 03:38:10;;;;;;;4.70;3.70;;;;;;;11.46;100.00;99718.22;5135887;27;20233;-79
2022/06/10 03:40:41;;;;;;;7.27;4.30;;;;;;;11.37;100.00;99719.59;5134226;27;20187;-79
2022/06/10 03:43:13;;;;;;;5.23;4.53;;;;;;;11.34;100.00;99717.13;5132212;27;20252;-79
2022/06/10 03:45:47;;;;;;;4.80;4.30;;;;;;;11.44;100.00;99713.00;5135466;27;20222;-79
2022/06/10 03:48:20;;;;;;;5.63;5.10;;;;;;;11.40;100.00;99716.78;5128592;27;20194;-79
2022/06/10 03:50:50;;;;;;;6.33;4.60;;;;;;;11.61;100.00;99724.44;5135456;27;20190;-79
2022/06/10 03:53:21;;;;;;;4.73;4.33;;;;;;;11.69;100.00;99732.81;5134374;27;20214;-79
2022/06/10 03:55:49;;;;;;;5.03;3.97;;;;;;;11.60;100.00;99734.19;5134082;27;20270;-79
2022/06/10 03:58:19;;;;;;;4.13;3.60;;;;;;;11.34;100.00;99737.50;5133403;27;20204;-80
2022/06/10 04:00:48;;;;;;;6.47;3.90;;;;;;;11.35;100.00;99729.44;5133210;27;20220;-79
2022/06/10 04:03:16;;;;;;;4.80;3.93;;;;;;;11.33;100.00;99735.81;5131567;27;20190;-79
2022/06/10 04:05:44;;;;;;;4.90;3.77;;;;;;;11.36;100.00;99746.22;5132430;27;20225;-79
2022/06/10 04:08:34;;;;;;;5.33;3.80;;;;;;;11.22;100.00;99744.38;5134602;27;20194;-79
2022/06/10 04:11:02;;;;;;;6.53;4.80;;;;;;;11.24;100.00;99758.41;5135257;27;20201;-79
2022/06/10 04:13:31;;;;;;;4.97;4.10;;;;;;;11.29;100.00;99766.97;5132536;27;20218;-79
2022/06/10 04:16:00;;;;;;;6.47;4.47;;;;;;;11.40;100.00;99761.88;5135056;27;20194;-79
2022/06/10 04:18:28;;;;;;;6.60;4.60;;;;;;;11.44;100.00;99767.84;5135119;27;20191;-79
2022/06/10 04:20:57;;;;;;;6.40;4.37;;;;;;;11.57;100.00;99768.00;5134617;27;20240;-80
2022/06/10 04:23:25;;;;;;;6.60;4.23;;;;;;;11.62;100.00;99763.28;5135073;27;20603;-79
2022/06/10 04:25:55;;;;;;;6.23;5.07;;;;;;;11.70;100.00;99761.91;5131280;27;20187;-80
2022/06/10 04:28:23;;;;;;;6.57;5.90;;;;;;;11.87;100.00;99766.25;5134446;27;20194;-78
2022/06/10 04:30:52;;;;;;;8.53;5.87;;;;;;;11.95;100.00;99768.41;5134784;27;20205;-79
2022/06/10 04:33:21;;;;;;;6.70;6.10;;;;;;;11.79;100.00;99764.97;5134740;27;20275;-79
2022/06/10 04:35:51;;;;;;;6.33;5.73;;;;;;;11.95;100.00;99774.59;5134800;27;20194;-79
2022/06/10 04:38:23;;;;;;;6.97;5.43;;;;;;;12.06;100.00;99770.44;5133638;27;20194;-80
2022/06/10 04:40:51;;;;;;;10.63;7.37;;;;;;;12.12;100.00;99772.72;5133415;27;20201;-79
2022/06/10 04:43:22;;;;;;;9.27;7.33;;;;;;;11.82;100.00;99772.75;5131819;27;20634;-79
2022/06/10 04:45:52;;;;;;;7.03;6.17;;;;;;;11.99;100.00;99784.09;5134719;27;20667;-80
2022/06/10 04:48:21;;;;;;;10.70;6.80;;;;;;;11.80;100.00;99783.47;5134035;27;20194;-79
2022/06/10 04:50:49;;;;;;;7.70;6.83;;;;;;;11.75;100.00;99788.16;5134636;27;20277;-80
2022/06/10 04:53:17;;;;;;;11.13;8.10;;;;;;;11.68;100.00;99792.97;5132287;27;20191;-79
2022/06/10 04:55:46;;;;;;;12.07;7.73;;;;;;;11.94;100.00;99799.44;5133369;27;20190;-79
2022/06/10 04:58:15;;;;;;;9.37;7.57;;;;;;;11.96;100.00;99804.63;5124071;27;20206;-79
2022/06/10 05:00:48;;;;;;;10.50;7.63;;;;;;;12.15;100.00;99801.75;5134473;27;20307;-79
2022/06/10 05:03:16;;;;;;;10.47;7.20;;;;;;;12.02;100.00;99804.28;5129044;27;20202;-80
2022/06/10 05:05:45;;;;;;;9.10;6.90;;;;;;;12.19;100.00;99805.94;5134316;27;20194;-79
2022/06/10 05:08:17;;;;;;;8.47;6.53;;;;;;;12.15;100.00;99815.03;5134396;27;20190;-79
2022/06/10 05:10:45;;;;;;;11.97;7.33;;;;;;;12.24;100.00;99812.66;5132701;27;20306;-80
2022/06/10 05:13:13;;;;;;;7.70;6.90;;;;;;;12.35;100.00;99819.97;5132161;27;20209;-80
2022/06/10 05:15:41;;;;;;;8.30;6.67;;;;;;;12.39;100.00;99826.84;5131951;27;20218;-80
2022/06/10 05:18:19;;;;;;;10.77;6.90;;;;;;;12.59;100.00;99821.16;5132790;27;20190;-80
2022/06/10 05:20:48;;;;;;;8.90;7.23;;;;;;;12.82;100.00;99816.19;5134060;27;20233;-80
2022/06/10 05:23:19;;;;;;;8.50;6.33;;;;;;;12.94;100.00;99810.13;5133952;27;20187;-79
2022/06/10 05:25:48;;;;;;;10.30;6.70;;;;;;;12.94;100.00;99811.94;5132942;27;20277;-80
2022/06/10 05:28:17;;;;;;;10.50;7.43;;;;;;;12.97;100.00;99806.41;5134137;27;20312;-79
2022/06/10 05:30:46;;;;;;;14.87;11.73;;;;;;;12.87;100.00;99814.13;5133962;27;20269;-84
2022/06/10 05:33:16;;;;;;;7.67;6.90;;;;;;;13.04;100.00;99824.56;5129751;27;20203;-80
2022/06/10 05:35:45;;;;;;;7.33;6.40;;;;;;;13.14;100.00;99823.00;5132339;27;20214;-80
2022/06/10 05:38:14;;;;;;;8.87;6.53;;;;;;;13.17;100.00;99829.94;5131225;28;20208;-80
2022/06/10 05:40:42;;;;;;;7.97;7.17;;;;;;;13.34;100.00;99823.56;5132443;28;20653;-79
2022/06/10 05:43:10;;;;;;;9.33;6.90;;;;;;;13.44;100.00;99819.34;5133839;28;20214;-79
2022/06/10 05:45:41;;;;;;;9.07;6.77;;;;;;;13.60;100.00;99819.19;5133745;28;20190;-80
2022/06/10 05:48:11;;;;;;;7.13;6.53;;;;;;;13.73;100.00;99820.97;5133808;28;20194;-80
2022/06/10 05:50:44;;;;;;;9.63;6.50;;;;;;;13.91;100.00;99820.69;5133811;28;20218;-80
2022/06/10 05:53:15;;;;;;;8.47;7.00;;;;;;;13.80;100.00;99825.84;5133426;28;20198;-79
2022/06/10 05:55:44;;;;;;;7.10;6.50;;;;;;;13.86;100.00;99826.31;5132590;28;20301;-80
2022/06/10 05:58:13;;;;;;;8.13;6.20;;;;;;;14.01;100.00;99827.09;5133268;28;20198;-80
2022/06/10 06:00:42;;;;;;;10.03;6.23;;;;;;;14.05;100.00;99820.59;5136918;27;20197;-80
2022/06/10 06:03:10;;;;;;;6.87;6.07;;;;;;;14.24;100.00;99820.22;5133715;27;20209;-79
2022/06/10 06:05:43;;;;;;;8.17;5.70;;;;;;;14.35;100.00;99825.66;5137875;27;20196;-80
2022/06/10 06:08:12;;;;;;;7.03;5.63;;;;;;;14.43;100.00;99823.31;5137803;27;20194;-79
2022/06/10 06:10:40;;;;;;;6.20;5.60;;;;;;;14.51;100.00;99820.16;5098420;27;20194;-80
2022/06/10 06:13:09;;;;;;;5.70;5.17;;;;;;;14.63;100.00;99823.78;5137666;27;20204;-80
2022/06/10 06:15:39;;;;;;;6.73;5.23;;;;;;;14.79;100.00;99827.91;5137484;27;20218;-80
2022/06/10 06:18:07;;;;;;;7.27;5.37;;;;;;;14.78;100.00;99818.22;5134830;27;20210;-80
2022/06/10 06:20:36;;;;;;;8.37;5.30;;;;;;;14.87;100.00;99820.25;5137986;27;20273;-80
2022/06/10 06:23:06;;;;;;;7.20;5.17;;;;;;;14.76;100.00;99817.44;5131883;27;20226;-79
2022/06/10 06:25:35;;;;;;;6.40;5.57;;;;;;;15.00;100.00;99816.69;5134952;27;20194;-80
2022/06/10 06:28:04;;;;;;;8.53;5.50;;;;;;;15.02;100.00;99812.09;5135325;27;20218;-80
2022/06/10 06:30:35;;;;;;;10.13;5.10;;;;;;;15.14;100.00;99813.88;5135060;27;20198;-79
2022/06/10 06:33:06;;;;;;;6.50;5.30;;;;;;;15.33;100.00;99813.38;5137216;27;20273;-80
2022/06/10 06:35:37;;;;;;;7.33;5.00;;;;;;;15.50;100.00;99804.13;5136754;27;20672;-79
2022/06/10 06:38:07;;;;;;;7.57;4.73;;;;;;;15.40;100.00;99810.16;5127247;27;20202;-79
2022/06/10 06:40:36;;;;;;;9.80;5.23;;;;;;;15.59;100.00;99811.47;5135518;27;20270;-79
2022/06/10 06:43:06;;;;;;;6.53;4.83;;;;;;;15.53;100.00;99814.56;5130444;27;20205;-80
2022/06/10 06:45:35;;;;;;;6.93;5.13;;;;;;;15.71;100.00;99822.13;5137127;27;20194;-79
2022/06/10 06:48:04;;;;;;;6.80;5.77;;;;;;;15.61;100.00;99807.75;5135736;27;20201;-79
2022/06/10 06:50:34;;;;;;;6.23;5.33;;;;;;;15.41;100.00;99816.34;5136937;27;20201;-79
2022/06/10 06:53:02;;;;;;;10.10;5.77;;;;;;;15.35;100.00;99827.50;5136820;27;20633;-79
2022/06/10 06:55:38;;;;;;;7.50;5.43;;;;;;;15.50;100.00;99823.69;5133187;27;20206;-79
2022/06/10 06:58:09;;;;;;;8.97;6.00;;;;;;;15.74;100.00;99823.72;5136842;27;20186;-80
2022/06/10 07:00:40;;;;;;;8.20;5.57;;;;;;;16.05;100.00;99810.72;5133756;27;20251;-79
2022/06/10 07:03:10;;;;;;;8.37;6.03;;;;;;;16.02;100.00;99819.84;5136519;27;20202;-80
2022/06/10 07:05:39;;;;;;;6.93;5.73;;;;;;;16.10;100.00;99819.22;5135442;27;20315;-80
2022/06/10 07:08:07;;;;;;;7.40;5.97;;;;;;;16.13;100.00;99808.31;5136607;27;20191;-80
2022/06/10 07:10:38;;;;;;;7.27;5.67;;;;;;;16.15;100.00;99820.59;5096971;27;20205;-80
2022/06/10 07:13:07;;;;;;;9.03;6.40;;;;;;;16.21;100.00;99817.47;5136257;27;20214;-80
2022/06/10 07:15:37;;;;;;;7.23;5.93;;;;;;;16.36;100.00;99810.06;5073387;28;20683;-80
2022/06/10 07:18:05;;;;;;;9.10;6.20;;;;;;;16.67;100.00;99813.00;5073058;28;20211;-80
2022/06/10 07:20:36;;;;;;;8.17;5.97;;;;;;;16.70;100.00;99812.81;5070539;28;20667;-80
2022/06/10 07:23:04;;;;;;;6.17;5.57;;;;;;;16.93;100.00;99811.00;5068627;28;20211;-80
2022/06/10 07:25:34;;;;;;;8.13;7.20;;;;;;;17.03;100.00;99807.44;5067170;28;20196;-80
2022/06/10 07:28:04;;;;;;;8.03;6.47;;;;;;;16.88;100.00;99812.19;5064532;28;20200;-80
2022/06/10 07:30:34;;;;;;;10.50;7.60;;;;;;;17.04;100.00;99817.19;5072900;28;20200;-80
2022/06/10 07:33:02;;;;;;;8.67;6.80;;;;;;;16.88;100.00;99816.69;5072949;28;20207;-80
2022/06/10 07:35:31;;;;;;;7.73;6.50;;;;;;;17.04;100.00;99819.84;5070071;28;20338;-80
2022/06/10 07:38:00;;;;;;;7.87;5.90;;;;;;;17.15;100.00;99817.16;5072913;28;20272;-80
2022/06/10 07:43:40;;;;;;;9.43;5.97;;;;;;;17.08;100.00;99809.75;5135940;27;20382;-80
2022/06/10 07:46:10;;;;;;;7.50;5.50;;;;;;;17.35;100.00;99818.22;5134882;27;20194;-80
2022/06/10 07:48:39;;;;;;;9.37;5.37;;;;;;;17.31;100.00;99815.94;5114562;27;20232;-80
2022/06/10 07:51:08;;;;;;;7.93;5.50;;;;;;;17.39;100.00;99808.13;5135850;27;20225;-80
2022/06/10 07:53:36;;;;;;;10.10;6.27;;;;;;;17.21;100.00;99805.13;5128326;27;20190;-80
2022/06/10 07:56:04;;;;;;;8.60;5.27;;;;;;;17.54;100.00;99796.13;5135860;27;20226;-80
2022/06/10 07:58:33;;;;;;;7.33;5.40;;;;;;;17.43;100.00;99798.84;5131145;27;20589;-80
2022/06/10 08:01:03;;;;;;;9.23;5.27;;;;;;;17.62;100.00;99803.53;5130159;27;20198;-80
2022/06/10 08:03:31;;;;;;;9.27;5.40;;;;;;;17.91;100.00;99790.41;5132133;27;20234;-80
2022/06/10 08:06:01;;;;;;;6.90;5.67;;;;;;;18.17;100.00;99790.91;5134462;27;20194;-80
2022/06/10 08:08:29;;;;;;;8.73;5.73;;;;;;;18.21;100.00;99795.84;5134734;27;20193;-79
2022/06/10 08:10:58;;;;;;;12.10;5.83;;;;;;;18.43;100.00;99802.06;5134655;27;20290;-80
2022/06/10 08:13:27;;;;;;;9.97;5.53;;;;;;;18.60;100.00;99796.09;5133502;27;20231;-80
2022/06/10 08:15:57;;;;;;;8.10;5.67;;;;;;;18.18;100.00;99790.78;5135363;27;20225;-80
2022/06/10 08:18:31;;;;;;;6.73;4.83;;;;;;;18.28;100.00;99796.19;5135600;27;20187;-80
2022/06/10 08:23:47;;;;;;;10.03;5.80;;;;;;;19.08;100.00;99782.03;5133116;27;20281;-80
2022/06/10 08:26:15;;;;;;;6.43;4.50;;;;;;;19.10;100.00;99782.75;5135442;27;20194;-80
2022/06/10 08:28:46;;;;;;;10.77;5.10;;;;;;;19.36;100.00;99783.94;5135110;27;20206;-81
2022/06/10 08:31:15;;;;;;;10.90;5.40;;;;;;;19.16;100.00;99787.59;5135010;27;20748;-81
2022/06/10 08:33:45;;;;;;;6.87;5.07;;;;;;;18.77;100.00;99787.44;5133857;27;20186;-81
2022/06/10 08:36:14;;;;;;;6.27;4.90;;;;;;;18.95;100.00;99787.66;5132117;27;20222;-80
2022/06/10 08:38:50;;;;;;;7.53;4.70;;;;;;;19.19;100.00;99783.75;5131882;27;20227;-80
2022/06/10 08:41:25;;;;;;;9.47;4.93;;;;;;;19.00;100.00;99784.56;5132250;27;20231;-80
2022/06/10 08:44:05;;;;;;;6.90;4.27;;;;;;;19.44;100.00;99778.72;5132724;27;20208;-80
2022/06/10 08:46:57;;;;;;;6.97;3.57;;;;;;;19.63;100.00;99782.47;5133887;27;20200;-80
2022/06/10 08:49:45;;;;;;;5.80;4.57;;;;;;;19.57;100.00;99785.69;5135321;27;20205;-80
2022/06/10 08:52:24;;;;;;;7.20;4.50;;;;;;;19.60;100.00;99780.91;5134824;27;20205;-81
2022/06/10 08:54:59;;;;;;;6.93;4.30;;;;;;;19.86;100.00;99786.56;5130129;27;20194;-81
2022/06/10 08:57:35;;;;;;;5.43;4.00;;;;;;;20.09;100.00;99780.91;5126491;27;20668;-81
2022/06/10 09:00:13;;;;;;;6.87;4.50;;;;;;;19.68;100.00;99777.50;5132395;27;20189;-81
2022/06/10 09:02:46;;;;;;;5.10;4.37;;;;;;;19.85;100.00;99789.38;5131812;27;20209;-81
2022/06/10 09:05:22;;;;;;;6.70;3.80;;;;;;;19.84;100.00;99785.84;5133193;27;20282;-80
2022/06/10 09:07:54;;;;;;;5.87;3.93;;;;;;;20.26;100.00;99774.75;5071128;28;20195;-81
2022/06/10 09:10:29;;;;;;;6.43;3.60;;;;;;;20.53;100.00;99772.16;5066183;28;20201;-80
2022/06/10 09:13:21;;;;;;;6.77;3.20;;;;;;;20.34;100.00;99777.56;5067333;28;20200;-80
2022/06/10 09:15:54;;;;;;;5.23;4.00;;;;;;;20.06;100.00;99778.47;5068387;28;20215;-80
2022/06/10 09:18:29;;;;;;;7.87;4.00;;;;;;;20.73;100.00;99774.78;5069996;28;20675;-80
2022/06/10 09:21:07;;;;;;;6.13;3.87;;;;;;;20.94;100.00;99770.03;5066052;28;20200;-80
2022/06/10 09:23:41;;;;;;;5.47;3.27;;;;;;;21.15;100.00;99773.31;5066425;28;20200;-81
2022/06/10 09:26:17;;;;;;;7.93;3.20;;;;;;;21.52;100.00;99764.31;5068499;28;20286;-81
2022/06/10 09:28:48;;;;;;;5.47;3.20;;;;;;;21.58;100.00;99769.09;5071136;28;20189;-81
2022/06/10 09:31:30;;;;;;;6.60;3.33;;;;;;;20.38;100.00;99772.78;5068975;28;20303;-80
2022/06/10 09:34:10;;;;;;;8.20;2.90;;;;;;;20.93;100.00;99780.94;5133610;27;20206;-81
2022/06/10 09:36:46;;;;;;;10.40;3.33;;;;;;;21.00;100.00;99774.81;5133941;27;20209;-80
2022/06/10 09:42:20;;;;;;;3.60;2.67;;;;;;;20.66;100.00;99771.00;5134004;28;20205;-80
2022/06/10 09:44:56;;;;;;;6.77;3.27;;;;;;;20.48;100.00;99773.63;5131877;28;20201;-80
2022/06/10 09:47:45;;;;;;;5.87;3.20;;;;;;;20.85;100.00;99769.09;5132538;28;20229;-81
2022/06/10 09:50:26;;;;;;;4.63;2.70;;;;;;;21.19;100.00;99776.56;5131398;28;20243;-81
2022/06/10 09:53:20;;;;;;;8.27;3.17;;;;;;;21.26;100.00;99774.09;5133687;28;20273;-81
2022/06/10 09:56:06;;;;;;;4.37;2.80;;;;;;;21.25;100.00;99772.41;5131692;28;20194;-81
2022/06/10 09:58:52;;;;;;;4.77;2.80;;;;;;;21.30;100.00;99759.34;5042941;28;20203;-81
2022/06/10 10:01:34;;;;;;;8.23;3.30;;;;;;;21.36;100.00;99767.69;5087232;28;20198;-80
2022/06/10 10:04:32;;;;;;;4.60;3.30;;;;;;;21.21;100.00;99758.38;5088464;28;20279;-80
2022/06/10 10:07:08;;;;;;;4.13;3.00;;;;;;;21.74;100.00;99763.00;5088656;28;20287;-80
2022/06/10 10:09:48;;;;;;;5.07;3.27;;;;;;;21.50;100.00;99766.31;5087444;28;20246;-81
2022/06/10 10:12:29;;;;;;;9.90;3.60;;;;;;;21.32;100.00;99760.03;5088265;28;20194;-81
2022/06/10 10:15:10;;;;;;;4.77;2.90;;;;;;;21.61;100.00;99759.84;5090849;28;20255;-80
2022/06/10 10:18:08;;;;;;;5.63;2.60;;;;;;;21.89;100.00;99774.94;5090852;28;20419;-80
2022/06/10 10:21:02;;;;;;;4.83;2.80;;;;;;;21.42;100.00;99774.31;5076506;28;20196;-81
2022/06/10 10:23:34;;;;;;;4.10;2.50;;;;;;;22.10;100.00;99754.88;5110758;28;20194;-81
2022/06/10 10:26:07;;;;;;;6.93;2.90;;;;;;;21.97;100.00;99755.28;5133371;28;20325;-81
2022/06/10 10:28:38;;;;;;;4.27;2.50;;;;;;;22.57;100.00;99752.66;5133486;28;20194;-81
2022/06/10 10:31:15;;;;;;;6.10;2.67;;;;;;;22.69;100.00;99759.50;5133524;28;20250;-80
2022/06/10 10:33:45;;;;;;;6.03;2.93;;;;;;;22.17;100.00;99750.56;5131630;28;20342;-81
2022/06/10 10:36:21;;;;;;;7.87;2.60;;;;;;;22.31;100.00;99754.56;5127143;28;20201;-81
2022/06/10 10:38:51;;;;;;;5.88;2.70;;;;;;;22.57;100.00;99755.38;5129961;28;20617;-81
2022/06/10 10:41:34;;;;;;;5.90;2.60;;;;;;;21.84;100.00;99741.34;5133845;28;20202;-81
2022/06/10 10:44:08;;;;;;;3.50;2.30;;;;;;;23.06;100.00;99739.41;5130436;28;20194;-81
2022/06/10 10:46:39;;;;;;;5.20;2.23;;;;;;;23.63;100.00;99734.16;5134534;27;20239;-81
2022/06/10 10:49:22;;;;;;;5.00;2.60;;;;;;;23.58;100.00;99737.34;5137047;27;20218;-81
2022/06/10 10:51:51;;;;;;;4.35;2.17;;;;;;;24.37;99.53;99738.53;5135955;27;20197;-81
2022/06/10 10:54:25;;;;;;;4.32;2.50;;;;;;;22.88;96.21;99734.13;5134029;27;20202;-80
2022/06/10 10:56:56;;;;;;;4.40;2.15;;;;;;;23.88;90.87;99732.31;5136836;27;20533;-81
2022/06/10 10:59:34;;;;;;;5.35;2.22;;;;;;;24.67;87.25;99734.22;5132242;27;20197;-81
2022/06/10 11:02:34;;;;;;;4.85;2.20;;;;;;;24.54;88.52;99728.50;5132187;27;20264;-81
2022/06/10 11:05:20;;;;;;;4.45;2.28;;;;;;;23.74;85.88;99741.97;5136868;27;20197;-81
2022/06/10 11:08:11;;;;;;;6.78;2.45;;;;;;;23.01;94.56;99748.00;5136821;27;20194;-81
2022/06/10 11:11:03;;;;;;;7.03;2.05;;;;;;;23.27;92.82;99731.72;5135575;27;20195;-81
2022/06/10 11:13:49;;;;;;;4.75;2.25;;;;;;;23.82;86.31;99728.41;5136593;27;20202;-81
2022/06/10 11:16:30;;;;;;;5.75;1.85;;;;;;;24.45;83.86;99730.41;5137003;27;20281;-81
2022/06/10 11:19:11;;;;;;;3.45;2.30;;;;;;;24.78;84.33;99720.28;5129004;27;20218;-82
2022/06/10 11:21:50;;;;;;;6.18;3.50;;;;;;;24.49;84.35;99720.06;5136496;27;20187;-81
2022/06/10 11:24:24;;;;;;;6.82;2.60;;;;;;;24.74;88.68;99713.53;5134369;27;20194;-82
2022/06/10 11:26:54;;;;;;;5.80;2.30;;;;;;;24.89;79.36;99712.78;5135218;27;20190;-81
2022/06/10 11:29:25;;;;;;;4.88;2.30;;;;;;;24.78;79.94;99714.88;5136066;27;20676;-81
2022/06/10 11:31:56;;;;;;;3.80;2.13;;;;;;;24.69;86.38;99715.91;5136235;27;20296;-81
2022/06/10 11:34:31;;;;;;;5.65;2.30;;;;;;;25.17;75.67;99702.34;5101083;27;20205;-82
2022/06/10 11:36:59;;;;;;;3.75;1.98;;;;;;;25.11;76.62;99707.47;5135866;27;20194;-81
2022/06/10 11:39:33;;;;;;;5.65;2.20;;;;;;;24.45;82.51;99707.88;5131276;27;20193;-81
2022/06/10 11:42:15;;;;;;;5.50;2.50;;;;;;;24.20;86.58;99716.03;5132290;27;20194;-81
2022/06/10 11:44:49;;;;;;;4.80;2.15;;;;;;;24.49;85.21;99706.50;5135881;27;20653;-81
2022/06/10 11:47:26;;;;;;;4.53;2.13;;;;;;;24.03;90.59;99708.09;5133814;27;20190;-81
2022/06/10 11:49:59;;;;;;;3.55;1.60;;;;;;;23.05;78.84;99710.69;5136130;27;20270;-81
2022/06/10 11:52:31;;;;;;;5.63;2.05;;;;;;;23.36;81.98;99710.94;5135895;27;20205;-81
2022/06/10 11:55:06;;;;;;;4.35;2.00;;;;;;;23.62;82.32;99705.41;5131668;27;20199;-81
2022/06/10 12:00:36;;;;;;;4.40;1.95;;;;;;;23.61;83.92;99688.34;5136084;27;20183;-81
2022/06/10 12:03:17;;;;;;;4.45;2.22;;;;;;;25.00;78.42;99678.00;5130374;27;20299;-81
2022/06/10 12:05:56;;;;;;;3.78;1.67;;;;;;;25.72;74.17;99677.72;5114292;27;20190;-81
2022/06/10 12:08:38;;;;;;;4.03;2.03;;;;;;;26.30;68.64;99684.28;5089261;28;20282;-81
2022/06/10 12:11:23;;;;;;;4.18;2.10;;;;;;;26.45;66.44;99678.91;5091254;28;20188;-81
2022/06/10 12:14:00;;;;;;;6.15;2.10;;;;;;;26.43;65.92;99675.50;5085062;28;20202;-82
2022/06/10 12:16:38;;;;;;;9.38;2.67;;;;;;;26.54;67.58;99672.34;5089958;28;20203;-82